Terminal Aerodrome Forecast
Issued by NWS Cleveland, OH

Home | Current Version | Previous Version | Graphics & Text | Print | Product List | Glossary On
Versions: 1 2 3 4 5 6 7 8 9 10 11 12 13 14 15 16 17
000
FTUS41 KCLE 221545 AAA
TAFERI
TAF AMD
KERI 221545Z 2216/2312 19010KT P6SM VCSH BKN060 OVC100
      TEMPO 2216/2218 3SM -TSRA BKN035CB
     FM221900 21010G20KT P6SM SCT050 BKN100
     FM230900 20015G25KT P6SM BKN030=

USA.gov is the U.S. government's official web portal to all federal, state and local government web resources and services.